sensor_id;sensor_type;location;lat;lon;timestamp;pressure;altitude;pressure_sealevel;temperature;humidity
72066;BME280;59939;52.516;13.420;2022-08-11T00:00:14;101459.06;;;19.86;46.69
72066;BME280;59939;52.516;13.420;2022-08-11T00:03:22;101452.19;;;19.43;47.83
72066;BME280;59939;52.516;13.420;2022-08-11T00:06:34;101458.66;;;19.60;47.31
72066;BME280;59939;52.516;13.420;2022-08-11T00:09:40;101445.31;;;19.65;47.26
72066;BME280;59939;52.516;13.420;2022-08-11T00:12:58;101447.88;;;19.58;47.81
72066;BME280;59939;52.516;13.420;2022-08-11T00:16:11;101448.25;;;19.44;48.14
72066;BME280;59939;52.516;13.420;2022-08-11T00:19:20;101452.19;;;19.43;48.06
72066;BME280;59939;52.516;13.420;2022-08-11T00:22:29;101452.53;;;19.30;48.56
72066;BME280;59939;52.516;13.420;2022-08-11T00:25:42;101452.44;;;19.38;48.28
72066;BME280;59939;52.516;13.420;2022-08-11T00:28:51;101457.66;;;19.15;48.76
72066;BME280;59939;52.516;13.420;2022-08-11T00:32:01;101460.09;;;19.29;48.39
72066;BME280;59939;52.516;13.420;2022-08-11T00:35:23;101454.75;;;19.24;48.69
72066;BME280;59939;52.516;13.420;2022-08-11T00:38:32;101456.59;;;19.32;48.20
72066;BME280;59939;52.516;13.420;2022-08-11T00:41:43;101446.97;;;19.54;47.89
72066;BME280;59939;52.516;13.420;2022-08-11T00:45:12;101442.56;;;19.41;48.12
72066;BME280;59939;52.516;13.420;2022-08-11T00:48:35;101455.56;;;19.25;48.64
72066;BME280;59939;52.516;13.420;2022-08-11T00:51:53;101446.63;;;19.43;48.16
72066;BME280;59939;52.516;13.420;2022-08-11T00:59:21;101455.78;;;19.32;48.57
72066;BME280;59939;52.516;13.420;2022-08-11T01:02:46;101456.72;;;19.11;49.01
72066;BME280;59939;52.516;13.420;2022-08-11T01:06:01;101455.31;;;19.05;49.52
72066;BME280;59939;52.516;13.420;2022-08-11T01:27:05;101464.16;;;18.62;50.39
72066;BME280;59939;52.516;13.420;2022-08-11T01:30:46;101465.25;;;18.82;50.23
72066;BME280;59939;52.516;13.420;2022-08-11T01:38:44;101472.88;;;18.40;51.28
72066;BME280;59939;52.516;13.420;2022-08-11T01:49:09;101457.03;;;18.73;50.73
72066;BME280;59939;52.516;13.420;2022-08-11T01:52:27;101466.25;;;18.65;50.98
72066;BME280;59939;52.516;13.420;2022-08-11T01:55:43;101459.69;;;18.49;51.31
72066;BME280;59939;52.516;13.420;2022-08-11T01:59:40;101456.50;;;18.59;50.95
72066;BME280;59939;52.516;13.420;2022-08-11T02:03:08;101453.88;;;18.42;51.28
72066;BME280;59939;52.516;13.420;2022-08-11T02:06:40;101455.31;;;18.48;51.14
72066;BME280;59939;52.516;13.420;2022-08-11T02:10:26;101447.53;;;18.74;50.35
72066;BME280;59939;52.516;13.420;2022-08-11T02:14:18;101445.44;;;18.83;49.90
72066;BME280;59939;52.516;13.420;2022-08-11T02:21:15;101444.84;;;18.66;50.68
72066;BME280;59939;52.516;13.420;2022-08-11T02:24:48;101445.69;;;18.90;49.84
72066;BME280;59939;52.516;13.420;2022-08-11T02:34:58;101447.69;;;18.57;50.89
72066;BME280;59939;52.516;13.420;2022-08-11T02:38:13;101443.50;;;18.51;51.02
72066;BME280;59939;52.516;13.420;2022-08-11T02:41:57;101443.75;;;18.58;50.91
72066;BME280;59939;52.516;13.420;2022-08-11T02:45:30;101431.09;;;18.48;50.80
72066;BME280;59939;52.516;13.420;2022-08-11T02:56:12;101435.81;;;18.36;51.38
72066;BME280;59939;52.516;13.420;2022-08-11T03:00:06;101439.28;;;18.33;51.53
72066;BME280;59939;52.516;13.420;2022-08-11T03:03:22;101436.91;;;18.22;52.30
72066;BME280;59939;52.516;13.420;2022-08-11T03:06:34;101440.03;;;18.21;52.19
72066;BME280;59939;52.516;13.420;2022-08-11T03:13:50;101438.88;;;18.10;51.78
72066;BME280;59939;52.516;13.420;2022-08-11T03:21:04;101444.34;;;18.31;51.31
72066;BME280;59939;52.516;13.420;2022-08-11T03:24:16;101443.63;;;18.21;51.71
72066;BME280;59939;52.516;13.420;2022-08-11T03:27:51;101440.63;;;18.26;51.55
72066;BME280;59939;52.516;13.420;2022-08-11T03:31:09;101444.63;;;18.05;52.32
72066;BME280;59939;52.516;13.420;2022-08-11T03:34:22;101444.78;;;18.20;51.97
72066;BME280;59939;52.516;13.420;2022-08-11T03:37:50;101439.78;;;18.47;50.92
72066;BME280;59939;52.516;13.420;2022-08-11T03:41:25;101443.16;;;17.86;52.35
72066;BME280;59939;52.516;13.420;2022-08-11T03:48:28;101444.97;;;17.82;52.75
72066;BME280;59939;52.516;13.420;2022-08-11T03:52:12;101445.66;;;18.00;52.05
72066;BME280;59939;52.516;13.420;2022-08-11T03:56:10;101446.72;;;18.08;52.01
72066;BME280;59939;52.516;13.420;2022-08-11T04:03:06;101442.13;;;18.12;51.90
72066;BME280;59939;52.516;13.420;2022-08-11T04:06:48;101446.19;;;17.93;52.59
72066;BME280;59939;52.516;13.420;2022-08-11T04:10:47;101439.22;;;18.20;51.83
72066;BME280;59939;52.516;13.420;2022-08-11T04:14:41;101439.47;;;18.15;52.08
72066;BME280;59939;52.516;13.420;2022-08-11T04:18:22;101445.97;;;18.32;51.44
72066;BME280;59939;52.516;13.420;2022-08-11T04:22:16;101446.38;;;18.09;52.11
72066;BME280;59939;52.516;13.420;2022-08-11T04:25:56;101442.47;;;18.22;51.75
72066;BME280;59939;52.516;13.420;2022-08-11T04:33:09;101454.81;;;18.46;51.81
72066;BME280;59939;52.516;13.420;2022-08-11T04:40:47;101458.38;;;18.34;51.52
72066;BME280;59939;52.516;13.420;2022-08-11T04:44:19;101445.44;;;18.83;50.63
72066;BME280;59939;52.516;13.420;2022-08-11T04:47:52;101451.03;;;18.96;50.12
72066;BME280;59939;52.516;13.420;2022-08-11T04:55:35;101452.31;;;18.53;51.18
72066;BME280;59939;52.516;13.420;2022-08-11T04:59:22;101456.13;;;18.48;51.57
72066;BME280;59939;52.516;13.420;2022-08-11T05:03:23;101455.22;;;18.23;51.69
72066;BME280;59939;52.516;13.420;2022-08-11T05:07:07;101451.13;;;18.42;51.02
72066;BME280;59939;52.516;13.420;2022-08-11T05:13:50;101454.25;;;18.73;50.64
72066;BME280;59939;52.516;13.420;2022-08-11T05:17:16;101460.50;;;18.82;50.44
72066;BME280;59939;52.516;13.420;2022-08-11T05:20:51;101461.19;;;18.67;50.57
72066;BME280;59939;52.516;13.420;2022-08-11T05:24:22;101463.19;;;19.03;49.87
72066;BME280;59939;52.516;13.420;2022-08-11T05:27:55;101458.31;;;18.88;50.15
72066;BME280;59939;52.516;13.420;2022-08-11T05:31:30;101466.56;;;19.45;48.76
72066;BME280;59939;52.516;13.420;2022-08-11T05:34:54;101475.19;;;19.93;47.73
72066;BME280;59939;52.516;13.420;2022-08-11T05:38:01;101468.16;;;19.71;48.32
72066;BME280;59939;52.516;13.420;2022-08-11T05:41:31;101470.72;;;19.64;48.53
72066;BME280;59939;52.516;13.420;2022-08-11T05:44:57;101471.84;;;19.87;48.15
72066;BME280;59939;52.516;13.420;2022-08-11T05:48:31;101472.44;;;19.80;48.27
72066;BME280;59939;52.516;13.420;2022-08-11T05:51:54;101476.00;;;19.93;48.22
72066;BME280;59939;52.516;13.420;2022-08-11T05:55:17;101477.47;;;20.43;46.92
72066;BME280;59939;52.516;13.420;2022-08-11T05:59:11;101484.53;;;20.12;47.54
72066;BME280;59939;52.516;13.420;2022-08-11T06:02:17;101483.00;;;20.87;46.17
72066;BME280;59939;52.516;13.420;2022-08-11T06:05:21;101486.34;;;20.76;45.86
72066;BME280;59939;52.516;13.420;2022-08-11T06:08:29;101484.19;;;21.48;44.60
72066;BME280;59939;52.516;13.420;2022-08-11T06:11:37;101483.38;;;20.85;46.18
72066;BME280;59939;52.516;13.420;2022-08-11T06:14:46;101492.94;;;21.82;43.75
72066;BME280;59939;52.516;13.420;2022-08-11T06:17:53;101494.19;;;21.34;45.00
72066;BME280;59939;52.516;13.420;2022-08-11T06:20:59;101495.09;;;21.22;45.41
72066;BME280;59939;52.516;13.420;2022-08-11T06:24:13;101503.41;;;20.59;46.60
72066;BME280;59939;52.516;13.420;2022-08-11T06:27:20;101498.56;;;20.88;46.50
72066;BME280;59939;52.516;13.420;2022-08-11T06:30:33;101499.25;;;20.53;47.47
72066;BME280;59939;52.516;13.420;2022-08-11T06:37:15;101510.59;;;20.32;48.01
72066;BME280;59939;52.516;13.420;2022-08-11T06:40:55;101507.22;;;20.67;47.12
72066;BME280;59939;52.516;13.420;2022-08-11T06:44:26;101500.94;;;21.17;46.49
72066;BME280;59939;52.516;13.420;2022-08-11T06:47:33;101500.94;;;21.48;45.49
72066;BME280;59939;52.516;13.420;2022-08-11T06:50:40;101496.63;;;21.20;46.62
72066;BME280;59939;52.516;13.420;2022-08-11T06:54:10;101499.16;;;20.49;48.18
72066;BME280;59939;52.516;13.420;2022-08-11T06:57:17;101500.09;;;21.64;45.24
72066;BME280;59939;52.516;13.420;2022-08-11T07:00:44;101507.06;;;21.38;46.16
72066;BME280;59939;52.516;13.420;2022-08-11T07:04:03;101491.41;;;22.62;43.35
72066;BME280;59939;52.516;13.420;2022-08-11T07:07:36;101495.94;;;22.08;44.36
72066;BME280;59939;52.516;13.420;2022-08-11T07:15:08;101488.84;;;22.53;43.79
72066;BME280;59939;52.516;13.420;2022-08-11T07:18:35;101488.16;;;22.79;43.03
72066;BME280;59939;52.516;13.420;2022-08-11T07:22:02;101489.88;;;22.26;44.47
72066;BME280;59939;52.516;13.420;2022-08-11T07:25:28;101482.78;;;22.70;43.11
72066;BME280;59939;52.516;13.420;2022-08-11T07:28:58;101482.75;;;23.35;42.01
72066;BME280;59939;52.516;13.420;2022-08-11T07:32:23;101473.00;;;22.61;43.33
72066;BME280;59939;52.516;13.420;2022-08-11T07:35:34;101469.50;;;23.32;41.68
72066;BME280;59939;52.516;13.420;2022-08-11T07:38:42;101472.75;;;26.19;36.02
72066;BME280;59939;52.516;13.420;2022-08-11T07:41:48;101470.50;;;27.77;32.38
72066;BME280;59939;52.516;13.420;2022-08-11T07:44:55;101468.94;;;25.72;35.95
72066;BME280;59939;52.516;13.420;2022-08-11T07:48:22;101472.88;;;26.40;35.06
72066;BME280;59939;52.516;13.420;2022-08-11T07:51:45;101474.63;;;24.13;39.05
72066;BME280;59939;52.516;13.420;2022-08-11T07:55:17;101471.22;;;28.03;32.20
72066;BME280;59939;52.516;13.420;2022-08-11T07:58:24;101466.56;;;26.96;34.23
72066;BME280;59939;52.516;13.420;2022-08-11T08:01:48;101460.16;;;29.89;29.04
72066;BME280;59939;52.516;13.420;2022-08-11T08:05:15;101471.34;;;27.60;31.63
72066;BME280;59939;52.516;13.420;2022-08-11T08:08:40;101471.50;;;28.40;31.05
72066;BME280;59939;52.516;13.420;2022-08-11T08:12:04;101475.28;;;25.62;35.38
72066;BME280;59939;52.516;13.420;2022-08-11T08:15:30;101467.00;;;28.50;30.69
72066;BME280;59939;52.516;13.420;2022-08-11T08:18:53;101462.78;;;31.61;25.83
72066;BME280;59939;52.516;13.420;2022-08-11T08:21:58;101460.50;;;32.87;24.03
72066;BME280;59939;52.516;13.420;2022-08-11T08:25:04;101461.00;;;33.47;23.20
72066;BME280;59939;52.516;13.420;2022-08-11T08:28:13;101466.06;;;27.83;30.67
72066;BME280;59939;52.516;13.420;2022-08-11T08:31:18;101475.00;;;25.74;35.28
72066;BME280;59939;52.516;13.420;2022-08-11T08:34:36;101444.44;;;27.27;32.67
72066;BME280;59939;52.516;13.420;2022-08-11T08:37:41;101454.63;;;30.96;26.77
72066;BME280;59939;52.516;13.420;2022-08-11T08:40:46;101457.38;;;31.90;24.32
72066;BME280;59939;52.516;13.420;2022-08-11T08:44:21;101450.50;;;32.47;23.54
72066;BME280;59939;52.516;13.420;2022-08-11T08:48:07;101461.19;;;29.27;28.59
72066;BME280;59939;52.516;13.420;2022-08-11T08:51:14;101441.63;;;32.45;24.01
72066;BME280;59939;52.516;13.420;2022-08-11T08:54:41;101448.63;;;33.83;22.51
72066;BME280;59939;52.516;13.420;2022-08-11T08:57:48;101432.59;;;33.31;22.28
72066;BME280;59939;52.516;13.420;2022-08-11T09:00:57;101444.41;;;32.28;23.48
72066;BME280;59939;52.516;13.420;2022-08-11T09:04:06;101437.38;;;34.33;20.95
72066;BME280;59939;52.516;13.420;2022-08-11T09:07:23;101446.31;;;32.67;21.63
72066;BME280;59939;52.516;13.420;2022-08-11T09:10:30;101447.56;;;27.68;29.02
72066;BME280;59939;52.516;13.420;2022-08-11T09:13:41;101433.34;;;30.31;25.58
72066;BME280;59939;52.516;13.420;2022-08-11T09:16:48;101435.88;;;30.79;25.59
72066;BME280;59939;52.516;13.420;2022-08-11T09:19:56;101437.38;;;30.87;25.52
72066;BME280;59939;52.516;13.420;2022-08-11T09:23:07;101433.44;;;29.14;28.58
72066;BME280;59939;52.516;13.420;2022-08-11T09:26:50;101448.41;;;27.47;29.65
72066;BME280;59939;52.516;13.420;2022-08-11T09:30:07;101439.47;;;29.92;26.34
72066;BME280;59939;52.516;13.420;2022-08-11T09:33:20;101425.81;;;32.60;22.84
72066;BME280;59939;52.516;13.420;2022-08-11T09:36:25;101436.84;;;28.36;27.49
72066;BME280;59939;52.516;13.420;2022-08-11T09:39:50;101425.53;;;32.70;22.43
72066;BME280;59939;52.516;13.420;2022-08-11T09:43:16;101416.69;;;33.62;21.36
72066;BME280;59939;52.516;13.420;2022-08-11T09:46:42;101416.22;;;32.54;22.64
72066;BME280;59939;52.516;13.420;2022-08-11T09:49:46;101414.97;;;32.38;21.65
72066;BME280;59939;52.516;13.420;2022-08-11T09:52:52;101410.38;;;33.10;21.76
72066;BME280;59939;52.516;13.420;2022-08-11T09:56:18;101401.34;;;31.94;22.75
72066;BME280;59939;52.516;13.420;2022-08-11T09:59:46;101413.97;;;29.95;24.34
72066;BME280;59939;52.516;13.420;2022-08-11T10:02:54;101408.50;;;29.47;25.24
72066;BME280;59939;52.516;13.420;2022-08-11T10:06:02;101404.03;;;31.81;22.41
72066;BME280;59939;52.516;13.420;2022-08-11T10:10:00;101410.81;;;27.97;27.28
72066;BME280;59939;52.516;13.420;2022-08-11T10:13:10;101389.72;;;29.26;25.84
72066;BME280;59939;52.516;13.420;2022-08-11T10:16:16;101390.16;;;31.24;23.83
72066;BME280;59939;52.516;13.420;2022-08-11T10:19:30;101380.66;;;29.04;26.38
72066;BME280;59939;52.516;13.420;2022-08-11T10:22:39;101391.53;;;29.47;25.37
72066;BME280;59939;52.516;13.420;2022-08-11T10:26:04;101379.34;;;34.65;19.34
72066;BME280;59939;52.516;13.420;2022-08-11T10:29:40;101368.16;;;37.50;16.33
72066;BME280;59939;52.516;13.420;2022-08-11T10:33:05;101383.41;;;34.01;19.60
72066;BME280;59939;52.516;13.420;2022-08-11T10:36:33;101357.22;;;34.19;19.56
72066;BME280;59939;52.516;13.420;2022-08-11T10:39:46;101372.19;;;35.30;18.11
72066;BME280;59939;52.516;13.420;2022-08-11T10:42:57;101360.38;;;37.05;16.45
72066;BME280;59939;52.516;13.420;2022-08-11T10:46:16;101357.50;;;37.69;16.50
72066;BME280;59939;52.516;13.420;2022-08-11T10:49:41;101348.59;;;35.08;18.08
72066;BME280;59939;52.516;13.420;2022-08-11T10:52:49;101347.63;;;35.11;18.15
72066;BME280;59939;52.516;13.420;2022-08-11T10:56:13;101334.00;;;35.49;18.11
72066;BME280;59939;52.516;13.420;2022-08-11T10:59:37;101347.97;;;29.03;24.29
72066;BME280;59939;52.516;13.420;2022-08-11T11:02:42;101346.75;;;31.66;21.92
72066;BME280;59939;52.516;13.420;2022-08-11T11:05:47;101341.34;;;35.16;18.33
72066;BME280;59939;52.516;13.420;2022-08-11T11:08:59;101342.94;;;31.17;22.09
72066;BME280;59939;52.516;13.420;2022-08-11T11:12:14;101336.63;;;29.78;24.49
72066;BME280;59939;52.516;13.420;2022-08-11T11:15:44;101345.75;;;32.49;20.86
72066;BME280;59939;52.516;13.420;2022-08-11T11:19:12;101329.75;;;34.63;18.56
72066;BME280;59939;52.516;13.420;2022-08-11T11:22:27;101331.81;;;34.24;18.41
72066;BME280;59939;52.516;13.420;2022-08-11T11:30:06;101325.50;;;35.58;17.65
72066;BME280;59939;52.516;13.420;2022-08-11T11:34:00;101324.66;;;32.14;20.14
72066;BME280;59939;52.516;13.420;2022-08-11T11:37:10;101315.72;;;33.67;18.69
72066;BME280;59939;52.516;13.420;2022-08-11T11:40:21;101321.03;;;29.29;23.93
72066;BME280;59939;52.516;13.420;2022-08-11T11:43:29;101310.25;;;33.02;19.31
72066;BME280;59939;52.516;13.420;2022-08-11T11:46:36;101297.06;;;34.42;18.17
72066;BME280;59939;52.516;13.420;2022-08-11T11:49:41;101294.41;;;36.22;16.51
72066;BME280;59939;52.516;13.420;2022-08-11T11:52:47;101298.53;;;35.16;17.48
72066;BME280;59939;52.516;13.420;2022-08-11T11:55:51;101280.78;;;36.26;16.51
72066;BME280;59939;52.516;13.420;2022-08-11T11:58:56;101289.63;;;36.96;15.89
72066;BME280;59939;52.516;13.420;2022-08-11T12:02:20;101302.34;;;28.08;25.04
72066;BME280;59939;52.516;13.420;2022-08-11T12:05:25;101300.47;;;29.63;23.44
72066;BME280;59939;52.516;13.420;2022-08-11T12:08:30;101295.28;;;32.85;19.82
72066;BME280;59939;52.516;13.420;2022-08-11T12:11:34;101287.16;;;34.21;17.80
72066;BME280;59939;52.516;13.420;2022-08-11T12:15:16;101285.38;;;33.35;18.58
72066;BME280;59939;52.516;13.420;2022-08-11T12:18:22;101278.25;;;32.53;19.66
72066;BME280;59939;52.516;13.420;2022-08-11T12:21:29;101265.84;;;35.29;16.42
72066;BME280;59939;52.516;13.420;2022-08-11T12:24:34;101277.53;;;34.66;17.15
72066;BME280;59939;52.516;13.420;2022-08-11T12:28:05;101264.59;;;33.63;17.78
72066;BME280;59939;52.516;13.420;2022-08-11T12:31:09;101261.19;;;33.68;17.93
72066;BME280;59939;52.516;13.420;2022-08-11T12:34:16;101265.41;;;34.87;16.33
72066;BME280;59939;52.516;13.420;2022-08-11T12:37:23;101266.38;;;34.59;16.20
72066;BME280;59939;52.516;13.420;2022-08-11T12:40:30;101261.19;;;37.02;14.59
72066;BME280;59939;52.516;13.420;2022-08-11T12:44:14;101261.03;;;36.01;15.49
72066;BME280;59939;52.516;13.420;2022-08-11T12:47:46;101257.94;;;30.47;20.97
72066;BME280;59939;52.516;13.420;2022-08-11T12:51:11;101258.69;;;33.83;17.82
72066;BME280;59939;52.516;13.420;2022-08-11T12:57:53;101232.09;;;35.90;16.09
72066;BME280;59939;52.516;13.420;2022-08-11T13:01:16;101233.84;;;36.64;15.45
72066;BME280;59939;52.516;13.420;2022-08-11T13:04:40;101243.47;;;30.41;22.00
72066;BME280;59939;52.516;13.420;2022-08-11T13:08:12;101236.19;;;30.17;22.12
72066;BME280;59939;52.516;13.420;2022-08-11T13:11:18;101211.59;;;34.77;17.43
72066;BME280;59939;52.516;13.420;2022-08-11T13:14:41;101210.56;;;37.44;14.87
72066;BME280;59939;52.516;13.420;2022-08-11T13:17:50;101206.22;;;36.98;15.02
72066;BME280;59939;52.516;13.420;2022-08-11T13:20:55;101206.78;;;37.20;14.84
72066;BME280;59939;52.516;13.420;2022-08-11T13:24:00;101199.78;;;36.11;15.91
72066;BME280;59939;52.516;13.420;2022-08-11T13:27:06;101202.66;;;35.71;16.17
72066;BME280;59939;52.516;13.420;2022-08-11T13:30:13;101199.88;;;36.84;15.31
72066;BME280;59939;52.516;13.420;2022-08-11T13:33:49;101204.94;;;36.62;15.08
72066;BME280;59939;52.516;13.420;2022-08-11T13:36:56;101205.41;;;34.78;16.80
72066;BME280;59939;52.516;13.420;2022-08-11T13:40:01;101193.66;;;34.89;16.90
72066;BME280;59939;52.516;13.420;2022-08-11T13:43:08;101197.09;;;38.02;14.07
72066;BME280;59939;52.516;13.420;2022-08-11T13:46:13;101193.47;;;34.49;17.25
72066;BME280;59939;52.516;13.420;2022-08-11T13:49:23;101187.44;;;35.34;15.86
72066;BME280;59939;52.516;13.420;2022-08-11T13:52:38;101178.72;;;34.85;16.37
72066;BME280;59939;52.516;13.420;2022-08-11T13:55:44;101196.66;;;34.51;16.54
72066;BME280;59939;52.516;13.420;2022-08-11T13:58:50;101186.06;;;33.53;16.98
72066;BME280;59939;52.516;13.420;2022-08-11T14:01:59;101177.38;;;34.55;16.26
72066;BME280;59939;52.516;13.420;2022-08-11T14:05:15;101183.72;;;34.59;15.69
72066;BME280;59939;52.516;13.420;2022-08-11T14:08:24;101178.00;;;34.24;15.81
72066;BME280;59939;52.516;13.420;2022-08-11T14:11:31;101173.25;;;35.92;14.80
72066;BME280;59939;52.516;13.420;2022-08-11T14:15:02;101182.63;;;33.84;16.03
72066;BME280;59939;52.516;13.420;2022-08-11T14:18:28;101174.53;;;33.95;16.23
72066;BME280;59939;52.516;13.420;2022-08-11T14:21:36;101166.09;;;35.88;14.64
72066;BME280;59939;52.516;13.420;2022-08-11T14:25:00;101174.38;;;32.52;16.70
72066;BME280;59939;52.516;13.420;2022-08-11T14:28:05;101167.16;;;33.59;16.06
72066;BME280;59939;52.516;13.420;2022-08-11T14:31:14;101167.38;;;33.90;15.68
72066;BME280;59939;52.516;13.420;2022-08-11T14:34:23;101160.47;;;36.79;13.19
72066;BME280;59939;52.516;13.420;2022-08-11T14:37:28;101155.38;;;36.47;13.34
72066;BME280;59939;52.516;13.420;2022-08-11T14:40:32;101167.28;;;33.81;15.36
72066;BME280;59939;52.516;13.420;2022-08-11T14:43:59;101149.84;;;33.92;15.08
72066;BME280;59939;52.516;13.420;2022-08-11T14:47:22;101153.75;;;32.93;16.28
72066;BME280;59939;52.516;13.420;2022-08-11T14:50:30;101165.75;;;32.10;17.49
72066;BME280;59939;52.516;13.420;2022-08-11T14:53:35;101139.13;;;33.20;15.98
72066;BME280;59939;52.516;13.420;2022-08-11T14:56:39;101149.19;;;34.35;15.01
72066;BME280;59939;52.516;13.420;2022-08-11T14:59:47;101158.13;;;33.10;16.55
72066;BME280;59939;52.516;13.420;2022-08-11T15:02:53;101147.50;;;32.85;16.45
72066;BME280;59939;52.516;13.420;2022-08-11T15:06:20;101154.38;;;33.26;15.86
72066;BME280;59939;52.516;13.420;2022-08-11T15:09:27;101143.47;;;33.24;15.49
72066;BME280;59939;52.516;13.420;2022-08-11T15:12:34;101136.91;;;32.57;16.26
72066;BME280;59939;52.516;13.420;2022-08-11T15:15:39;101131.97;;;33.15;15.82
72066;BME280;59939;52.516;13.420;2022-08-11T15:19:04;101131.09;;;31.70;16.68
72066;BME280;59939;52.516;13.420;2022-08-11T15:22:09;101132.69;;;32.03;17.27
72066;BME280;59939;52.516;13.420;2022-08-11T15:25:42;101131.78;;;32.23;16.33
72066;BME280;59939;52.516;13.420;2022-08-11T15:28:49;101122.91;;;32.04;16.68
72066;BME280;59939;52.516;13.420;2022-08-11T15:32:39;101122.38;;;32.09;16.72
72066;BME280;59939;52.516;13.420;2022-08-11T15:36:06;101120.72;;;31.11;16.76
72066;BME280;59939;52.516;13.420;2022-08-11T15:39:44;101118.25;;;31.29;17.06
72066;BME280;59939;52.516;13.420;2022-08-11T15:43:14;101127.13;;;30.95;17.14
72066;BME280;59939;52.516;13.420;2022-08-11T15:46:46;101121.56;;;30.72;17.33
72066;BME280;59939;52.516;13.420;2022-08-11T15:49:56;101116.78;;;31.05;17.04
72066;BME280;59939;52.516;13.420;2022-08-11T15:56:30;101124.06;;;32.81;15.92
72066;BME280;59939;52.516;13.420;2022-08-11T15:59:36;101121.19;;;33.35;15.21
72066;BME280;59939;52.516;13.420;2022-08-11T16:03:03;101094.69;;;32.30;15.46
72066;BME280;59939;52.516;13.420;2022-08-11T16:06:31;101106.34;;;31.87;15.60
72066;BME280;59939;52.516;13.420;2022-08-11T16:09:46;101111.47;;;32.08;15.52
72066;BME280;59939;52.516;13.420;2022-08-11T16:13:01;101102.94;;;33.07;14.49
72066;BME280;59939;52.516;13.420;2022-08-11T16:16:11;101098.13;;;32.21;15.11
72066;BME280;59939;52.516;13.420;2022-08-11T16:19:21;101087.06;;;32.10;14.96
72066;BME280;59939;52.516;13.420;2022-08-11T16:22:29;101091.25;;;31.25;16.11
72066;BME280;59939;52.516;13.420;2022-08-11T16:25:54;101097.59;;;29.90;17.37
72066;BME280;59939;52.516;13.420;2022-08-11T16:29:00;101093.13;;;31.15;16.71
72066;BME280;59939;52.516;13.420;2022-08-11T16:32:10;101087.38;;;31.67;16.05
72066;BME280;59939;52.516;13.420;2022-08-11T16:35:28;101095.28;;;31.07;16.30
72066;BME280;59939;52.516;13.420;2022-08-11T16:38:52;101104.16;;;30.30;17.52
72066;BME280;59939;52.516;13.420;2022-08-11T16:41:57;101101.09;;;30.21;17.40
72066;BME280;59939;52.516;13.420;2022-08-11T16:45:21;101097.47;;;30.40;17.53
72066;BME280;59939;52.516;13.420;2022-08-11T16:48:47;101101.09;;;31.00;17.43
72066;BME280;59939;52.516;13.420;2022-08-11T16:52:05;101103.63;;;30.59;17.67
72066;BME280;59939;52.516;13.420;2022-08-11T16:55:14;101098.09;;;29.85;17.90
72066;BME280;59939;52.516;13.420;2022-08-11T16:58:20;101098.16;;;29.58;17.80
72066;BME280;59939;52.516;13.420;2022-08-11T17:01:51;101099.28;;;29.07;18.77
72066;BME280;59939;52.516;13.420;2022-08-11T17:04:58;101101.06;;;29.24;18.52
72066;BME280;59939;52.516;13.420;2022-08-11T17:08:50;101100.69;;;29.22;18.44
72066;BME280;59939;52.516;13.420;2022-08-11T17:12:15;101096.97;;;29.29;18.57
72066;BME280;59939;52.516;13.420;2022-08-11T17:15:50;101105.00;;;29.03;18.40
72066;BME280;59939;52.516;13.420;2022-08-11T17:19:27;101100.75;;;28.57;19.17
72066;BME280;59939;52.516;13.420;2022-08-11T17:22:38;101094.22;;;28.95;18.86
72066;BME280;59939;52.516;13.420;2022-08-11T17:26:04;101099.03;;;28.64;18.96
72066;BME280;59939;52.516;13.420;2022-08-11T17:29:09;101100.00;;;28.84;18.58
72066;BME280;59939;52.516;13.420;2022-08-11T17:32:26;101101.31;;;29.06;18.57
72066;BME280;59939;52.516;13.420;2022-08-11T17:36:01;101097.72;;;28.72;18.74
72066;BME280;59939;52.516;13.420;2022-08-11T17:39:20;101104.00;;;28.86;18.83
72066;BME280;59939;52.516;13.420;2022-08-11T17:42:28;101096.59;;;28.32;19.15
72066;BME280;59939;52.516;13.420;2022-08-11T17:46:26;101093.66;;;28.73;18.95
72066;BME280;59939;52.516;13.420;2022-08-11T17:49:51;101088.03;;;28.73;19.30
72066;BME280;59939;52.516;13.420;2022-08-11T17:52:57;101100.38;;;28.55;19.75
72066;BME280;59939;52.516;13.420;2022-08-11T17:56:20;101094.88;;;29.06;19.33
72066;BME280;59939;52.516;13.420;2022-08-11T17:59:48;101105.84;;;29.00;19.41
72066;BME280;59939;52.516;13.420;2022-08-11T18:02:57;101099.00;;;28.33;20.35
72066;BME280;59939;52.516;13.420;2022-08-11T18:06:22;101102.19;;;27.94;20.67
72066;BME280;59939;52.516;13.420;2022-08-11T18:09:28;101103.66;;;27.57;21.05
72066;BME280;59939;52.516;13.420;2022-08-11T18:12:55;101107.84;;;27.39;21.27
72066;BME280;59939;52.516;13.420;2022-08-11T18:16:19;101115.34;;;27.63;21.40
72066;BME280;59939;52.516;13.420;2022-08-11T18:19:42;101116.56;;;27.00;21.92
72066;BME280;59939;52.516;13.420;2022-08-11T18:23:11;101119.38;;;27.00;22.14
72066;BME280;59939;52.516;13.420;2022-08-11T18:26:44;101117.75;;;27.02;22.12
72066;BME280;59939;52.516;13.420;2022-08-11T18:30:08;101119.41;;;26.85;22.03
72066;BME280;59939;52.516;13.420;2022-08-11T18:33:43;101127.16;;;26.56;22.59
72066;BME280;59939;52.516;13.420;2022-08-11T18:37:18;101117.91;;;26.56;22.54
72066;BME280;59939;52.516;13.420;2022-08-11T18:40:43;101127.16;;;26.49;22.70
72066;BME280;59939;52.516;13.420;2022-08-11T18:44:09;101129.22;;;26.17;23.78
72066;BME280;59939;52.516;13.420;2022-08-11T18:47:40;101136.84;;;26.27;23.67
72066;BME280;59939;52.516;13.420;2022-08-11T18:51:07;101136.50;;;25.96;24.04